RYR84KM EGGW-LEMI
Flight info
| Callsign | RYR84KM |
|---|---|
| Flight time | 2h 23m |
| Altitude | 35000 |
| Route | RODNI N27 ICTAM Q63 CPT N859 VAPID UN859 BENAR/N0428F330 UN859 SOPIL DCT BALAN DCT LMG/N0436F370 DCT PIMQO DCT AGN DCT ANETO DCT POSSY DCT XIMPE DCT RIMES N860 VLC L34 ALT |
| Aircraft | B738/M-SDE3FGILRWY/SB1 |
Departure
| Time | 2026-04-17 06:48 |
|---|---|
| Airport | London Luton Airport (EGGW) |
Arrival
| Time | 2026-04-17 09:11 |
|---|---|
| Airport | Region of Murcia International Airport (LEMI) |
| Time | Latitude | Longitude | Altitude | Speed | Heading |
|---|---|---|---|---|---|
| 2026-04-17 06:25 | 51.87889 | -0.37920 | 522 ft | 0 kts | 73° |
| 2026-04-17 06:40 | 51.87888 | -0.37927 | 522 ft | 3 kts | 73° |
| 2026-04-17 06:40 | 51.87880 | -0.37966 | 522 ft | 3 kts | 73° |
| 2026-04-17 06:40 | 51.87878 | -0.38002 | 522 ft | 4 kts | 129° |
| 2026-04-17 06:40 | 51.87898 | -0.38016 | 522 ft | 4 kts | 179° |
| 2026-04-17 06:41 | 51.87919 | -0.38016 | 522 ft | 4 kts | 185° |
| 2026-04-17 06:41 | 51.87943 | -0.38009 | 522 ft | 2 kts | 193° |
| 2026-04-17 06:41 | 51.87944 | -0.38009 | 522 ft | 0 kts | 193° |
| 2026-04-17 06:44 | 51.87933 | -0.38013 | 522 ft | 4 kts | 191° |
| 2026-04-17 06:45 | 51.87888 | -0.38013 | 522 ft | 9 kts | 171° |
| 2026-04-17 06:45 | 51.87817 | -0.37948 | 522 ft | 14 kts | 133° |
| 2026-04-17 06:45 | 51.87762 | -0.37783 | 522 ft | 19 kts | 114° |
| 2026-04-17 06:45 | 51.87697 | -0.37560 | 519 ft | 24 kts | 119° |
| 2026-04-17 06:46 | 51.87583 | -0.37370 | 521 ft | 24 kts | 110° |
| 2026-04-17 06:46 | 51.87604 | -0.37117 | 521 ft | 23 kts | 74° |
| 2026-04-17 06:46 | 51.87645 | -0.36874 | 525 ft | 22 kts | 74° |
| 2026-04-17 06:46 | 51.87692 | -0.36609 | 520 ft | 26 kts | 74° |
| 2026-04-17 06:47 | 51.87743 | -0.36311 | 517 ft | 28 kts | 74° |
| 2026-04-17 06:47 | 51.87778 | -0.36027 | 516 ft | 24 kts | 104° |
| 2026-04-17 06:47 | 51.87657 | -0.35911 | 515 ft | 15 kts | 169° |
| 2026-04-17 06:47 | 51.87603 | -0.36033 | 514 ft | 15 kts | 253° |
| 2026-04-17 06:48 | 51.87530 | -0.36452 | 521 ft | 77 kts | 254° |
| 2026-04-17 06:48 | 51.87312 | -0.37694 | 522 ft | 150 kts | 252° |
| 2026-04-17 06:48 | 51.86992 | -0.39477 | 1106 ft | 169 kts | 252° |
| 2026-04-17 06:48 | 51.86465 | -0.41231 | 1877 ft | 184 kts | 224° |
| 2026-04-17 06:49 | 51.85333 | -0.42291 | 2425 ft | 194 kts | 202° |
| 2026-04-17 06:49 | 51.84111 | -0.43261 | 3100 ft | 199 kts | 216° |
| 2026-04-17 06:49 | 51.83358 | -0.44152 | 3533 ft | 207 kts | 216° |
| 2026-04-17 06:49 | 51.82147 | -0.45532 | 4183 ft | 217 kts | 217° |
| 2026-04-17 06:50 | 51.81203 | -0.47431 | 4982 ft | 225 kts | 248° |
| 2026-04-17 06:50 | 51.80863 | -0.49948 | 5745 ft | 229 kts | 254° |
| 2026-04-17 06:50 | 51.80300 | -0.53181 | 6922 ft | 227 kts | 249° |
| 2026-04-17 06:50 | 51.79842 | -0.55695 | 7428 ft | 241 kts | 253° |
| 2026-04-17 06:51 | 51.79366 | -0.58391 | 7877 ft | 256 kts | 252° |
| 2026-04-17 06:51 | 51.79040 | -0.60254 | 8462 ft | 253 kts | 253° |
| 2026-04-17 06:51 | 51.78585 | -0.62939 | 9575 ft | 243 kts | 253° |
| 2026-04-17 06:51 | 51.78103 | -0.65527 | 10436 ft | 244 kts | 252° |
| 2026-04-17 06:52 | 51.77604 | -0.68253 | 10778 ft | 265 kts | 254° |
| 2026-04-17 06:52 | 51.77147 | -0.71297 | 10956 ft | 291 kts | 255° |
| 2026-04-17 06:52 | 51.76654 | -0.74595 | 11238 ft | 311 kts | 255° |
| 2026-04-17 06:52 | 51.76061 | -0.78004 | 11849 ft | 319 kts | 246° |
| 2026-04-17 06:53 | 51.74861 | -0.80949 | 12588 ft | 322 kts | 225° |
| 2026-04-17 06:53 | 51.73050 | -0.83072 | 13394 ft | 326 kts | 207° |
| 2026-04-17 06:53 | 51.70856 | -0.84093 | 14152 ft | 334 kts | 188° |
| 2026-04-17 06:53 | 51.68519 | -0.83845 | 14814 ft | 344 kts | 169° |
| 2026-04-17 06:54 | 51.66198 | -0.82761 | 15477 ft | 350 kts | 166° |
| 2026-04-17 06:54 | 51.63868 | -0.81540 | 16108 ft | 355 kts | 166° |
| 2026-04-17 06:54 | 51.61511 | -0.80266 | 16764 ft | 359 kts | 166° |
| 2026-04-17 06:54 | 51.59130 | -0.78978 | 17413 ft | 363 kts | 166° |
| 2026-04-17 06:55 | 51.56717 | -0.77684 | 18050 ft | 368 kts | 166° |
| 2026-04-17 06:55 | 51.54272 | -0.76388 | 18624 ft | 372 kts | 166° |
| 2026-04-17 06:55 | 51.51799 | -0.75087 | 19208 ft | 375 kts | 166° |
| 2026-04-17 06:55 | 51.49314 | -0.73787 | 19822 ft | 377 kts | 167° |
| 2026-04-17 06:56 | 51.46811 | -0.72485 | 20420 ft | 379 kts | 167° |
| 2026-04-17 06:56 | 51.44293 | -0.71179 | 20987 ft | 382 kts | 167° |
| 2026-04-17 06:56 | 51.41753 | -0.69866 | 21546 ft | 385 kts | 167° |
| 2026-04-17 06:56 | 51.39196 | -0.68546 | 22113 ft | 387 kts | 167° |
| 2026-04-17 06:57 | 51.36622 | -0.67219 | 22661 ft | 390 kts | 167° |
| 2026-04-17 06:57 | 51.34027 | -0.65884 | 23195 ft | 393 kts | 167° |
| 2026-04-17 06:57 | 51.31408 | -0.64538 | 23648 ft | 398 kts | 167° |
| 2026-04-17 06:57 | 51.28760 | -0.63179 | 24053 ft | 402 kts | 167° |
| 2026-04-17 06:58 | 51.26094 | -0.61812 | 24512 ft | 403 kts | 168° |
| 2026-04-17 06:58 | 51.23418 | -0.60439 | 24963 ft | 405 kts | 168° |
| 2026-04-17 06:58 | 51.20724 | -0.59060 | 25397 ft | 408 kts | 168° |
| 2026-04-17 06:58 | 51.18018 | -0.57677 | 25808 ft | 410 kts | 168° |
| 2026-04-17 06:59 | 51.15291 | -0.56285 | 26216 ft | 413 kts | 168° |
| 2026-04-17 06:59 | 51.12547 | -0.54886 | 26615 ft | 415 kts | 168° |
| 2026-04-17 06:59 | 51.09787 | -0.53481 | 27026 ft | 418 kts | 168° |
| 2026-04-17 06:59 | 51.07014 | -0.52071 | 27416 ft | 420 kts | 168° |
| 2026-04-17 07:00 | 51.04220 | -0.50652 | 27800 ft | 422 kts | 168° |
| 2026-04-17 07:00 | 51.01413 | -0.49228 | 28178 ft | 425 kts | 168° |
| 2026-04-17 07:00 | 50.98591 | -0.47798 | 28551 ft | 427 kts | 168° |
| 2026-04-17 07:00 | 50.95752 | -0.46361 | 28911 ft | 429 kts | 168° |
| 2026-04-17 07:01 | 50.92897 | -0.44919 | 29266 ft | 432 kts | 168° |
| 2026-04-17 07:01 | 50.90028 | -0.43471 | 29591 ft | 434 kts | 168° |
| 2026-04-17 07:01 | 50.87144 | -0.42018 | 29907 ft | 436 kts | 168° |
| 2026-04-17 07:01 | 50.84238 | -0.40555 | 30182 ft | 440 kts | 168° |
| 2026-04-17 07:02 | 50.81314 | -0.39086 | 30444 ft | 442 kts | 168° |
| 2026-04-17 07:02 | 50.78374 | -0.37610 | 30700 ft | 444 kts | 168° |
| 2026-04-17 07:02 | 50.75423 | -0.36129 | 30981 ft | 446 kts | 168° |
| 2026-04-17 07:02 | 50.72467 | -0.34648 | 31300 ft | 446 kts | 168° |
| 2026-04-17 07:03 | 50.69511 | -0.33168 | 31674 ft | 445 kts | 168° |
| 2026-04-17 07:03 | 50.66568 | -0.31696 | 32029 ft | 444 kts | 169° |
| 2026-04-17 07:03 | 50.63622 | -0.30226 | 32314 ft | 445 kts | 168° |
| 2026-04-17 07:03 | 50.60662 | -0.28753 | 32543 ft | 447 kts | 168° |
| 2026-04-17 07:04 | 50.57700 | -0.27280 | 32857 ft | 447 kts | 168° |
| 2026-04-17 07:04 | 50.54740 | -0.25809 | 33226 ft | 445 kts | 169° |
| 2026-04-17 07:04 | 50.51788 | -0.24343 | 33568 ft | 445 kts | 169° |
| 2026-04-17 07:04 | 50.48835 | -0.22880 | 33861 ft | 445 kts | 169° |
| 2026-04-17 07:05 | 50.45881 | -0.21419 | 34151 ft | 445 kts | 169° |
| 2026-04-17 07:05 | 50.42927 | -0.19959 | 34430 ft | 445 kts | 169° |
| 2026-04-17 07:05 | 50.39976 | -0.18503 | 34661 ft | 445 kts | 168° |
| 2026-04-17 07:05 | 50.37019 | -0.17046 | 34869 ft | 446 kts | 168° |
| 2026-04-17 07:06 | 50.34058 | -0.15589 | 35113 ft | 446 kts | 168° |
| 2026-04-17 07:06 | 50.31100 | -0.14135 | 35378 ft | 445 kts | 168° |
| 2026-04-17 07:06 | 50.28183 | -0.12702 | 35621 ft | 445 kts | 168° |
| 2026-04-17 07:06 | 50.25227 | -0.11253 | 35840 ft | 446 kts | 168° |
| 2026-04-17 07:07 | 50.22266 | -0.09803 | 36071 ft | 446 kts | 168° |
| 2026-04-17 07:07 | 50.19308 | -0.08357 | 36290 ft | 445 kts | 168° |
| 2026-04-17 07:07 | 50.16346 | -0.06910 | 36493 ft | 446 kts | 168° |
| 2026-04-17 07:07 | 50.13381 | -0.05465 | 36681 ft | 447 kts | 168° |
| 2026-04-17 07:08 | 50.10417 | -0.04020 | 36917 ft | 446 kts | 168° |
| 2026-04-17 07:08 | 50.07453 | -0.02578 | 37151 ft | 446 kts | 168° |
| 2026-04-17 07:08 | 50.04484 | -0.01137 | 37201 ft | 449 kts | 168° |
| 2026-04-17 07:09 | 49.98498 | 0.01765 | 37197 ft | 450 kts | 168° |
| 2026-04-17 07:09 | 49.92545 | 0.04648 | 37208 ft | 446 kts | 168° |
| 2026-04-17 07:10 | 49.86631 | 0.07502 | 37216 ft | 444 kts | 168° |
| 2026-04-17 07:10 | 49.80738 | 0.10337 | 37216 ft | 443 kts | 168° |
| 2026-04-17 07:11 | 49.74856 | 0.13160 | 37216 ft | 443 kts | 168° |
| 2026-04-17 07:11 | 49.68968 | 0.15979 | 37217 ft | 443 kts | 167° |
| 2026-04-17 07:12 | 49.63029 | 0.18568 | 37223 ft | 444 kts | 170° |
| 2026-04-17 07:12 | 49.57031 | 0.20914 | 37222 ft | 446 kts | 171° |
| 2026-04-17 07:13 | 49.50955 | 0.22298 | 37213 ft | 439 kts | 182° |
| 2026-04-17 07:13 | 49.44839 | 0.22543 | 37213 ft | 440 kts | 183° |
| 2026-04-17 07:14 | 49.38702 | 0.22769 | 37217 ft | 442 kts | 183° |
| 2026-04-17 07:14 | 49.32540 | 0.23065 | 37210 ft | 443 kts | 182° |
| 2026-04-17 07:15 | 49.26370 | 0.23400 | 37207 ft | 444 kts | 182° |
| 2026-04-17 07:15 | 49.20201 | 0.23746 | 37223 ft | 444 kts | 182° |
| 2026-04-17 07:16 | 49.14037 | 0.24090 | 37219 ft | 443 kts | 182° |
| 2026-04-17 07:16 | 49.07885 | 0.24432 | 37215 ft | 442 kts | 182° |
| 2026-04-17 07:17 | 49.01753 | 0.24771 | 37219 ft | 440 kts | 182° |
| 2026-04-17 07:17 | 48.92596 | 0.25275 | 37221 ft | 438 kts | 182° |
| 2026-04-17 07:18 | 48.86511 | 0.25608 | 37222 ft | 437 kts | 182° |
| 2026-04-17 07:18 | 48.80432 | 0.25940 | 37225 ft | 437 kts | 182° |
| 2026-04-17 07:19 | 48.74359 | 0.26271 | 37224 ft | 437 kts | 182° |
| 2026-04-17 07:19 | 48.68284 | 0.26602 | 37223 ft | 437 kts | 182° |
| 2026-04-17 07:20 | 48.62208 | 0.26931 | 37216 ft | 437 kts | 182° |
| 2026-04-17 07:20 | 48.56129 | 0.27261 | 37227 ft | 437 kts | 182° |
| 2026-04-17 07:21 | 48.50038 | 0.27590 | 37227 ft | 438 kts | 182° |
| 2026-04-17 07:21 | 48.43940 | 0.27918 | 37227 ft | 439 kts | 182° |
| 2026-04-17 07:22 | 48.37811 | 0.28247 | 37348 ft | 442 kts | 181° |
| 2026-04-17 07:22 | 48.34740 | 0.28412 | 37621 ft | 441 kts | 181° |
| 2026-04-17 07:22 | 48.31682 | 0.28577 | 37935 ft | 438 kts | 181° |
| 2026-04-17 07:23 | 48.28642 | 0.28741 | 38182 ft | 437 kts | 181° |
| 2026-04-17 07:23 | 48.25598 | 0.28904 | 38364 ft | 438 kts | 181° |
| 2026-04-17 07:23 | 48.22555 | 0.29066 | 38550 ft | 438 kts | 182° |
| 2026-04-17 07:23 | 48.19518 | 0.29229 | 38832 ft | 435 kts | 182° |
| 2026-04-17 07:24 | 48.16503 | 0.29391 | 39075 ft | 433 kts | 182° |
| 2026-04-17 07:24 | 48.13495 | 0.29551 | 39185 ft | 433 kts | 182° |
| 2026-04-17 07:24 | 48.07490 | 0.29867 | 39236 ft | 437 kts | 182° |
| 2026-04-17 07:25 | 48.01408 | 0.30189 | 39245 ft | 438 kts | 182° |
| 2026-04-17 07:25 | 47.95308 | 0.30512 | 39239 ft | 439 kts | 182° |
| 2026-04-17 07:26 | 47.89207 | 0.30834 | 39236 ft | 439 kts | 182° |
| 2026-04-17 07:26 | 47.83098 | 0.31156 | 39236 ft | 439 kts | 182° |
| 2026-04-17 07:27 | 47.76992 | 0.31478 | 39214 ft | 439 kts | 182° |
| 2026-04-17 07:27 | 47.70890 | 0.31797 | 39222 ft | 438 kts | 182° |
| 2026-04-17 07:28 | 47.64798 | 0.32116 | 39220 ft | 438 kts | 182° |
| 2026-04-17 07:28 | 47.58719 | 0.32432 | 39209 ft | 437 kts | 182° |
| 2026-04-17 07:29 | 47.52691 | 0.32745 | 39221 ft | 436 kts | 182° |
| 2026-04-17 07:29 | 47.46631 | 0.33060 | 39216 ft | 435 kts | 182° |
| 2026-04-17 07:30 | 47.40581 | 0.33373 | 39219 ft | 435 kts | 182° |
| 2026-04-17 07:30 | 47.34541 | 0.33685 | 39215 ft | 434 kts | 182° |
| 2026-04-17 07:31 | 47.28502 | 0.33997 | 39213 ft | 434 kts | 182° |
| 2026-04-17 07:31 | 47.22463 | 0.34307 | 39216 ft | 434 kts | 182° |
| 2026-04-17 07:32 | 47.16419 | 0.34617 | 39202 ft | 435 kts | 182° |
| 2026-04-17 07:32 | 47.10371 | 0.34926 | 39216 ft | 435 kts | 182° |
| 2026-04-17 07:33 | 47.04314 | 0.35236 | 39218 ft | 436 kts | 182° |
| 2026-04-17 07:33 | 46.98248 | 0.35544 | 39215 ft | 437 kts | 182° |
| 2026-04-17 07:34 | 46.92167 | 0.35854 | 39211 ft | 437 kts | 182° |
| 2026-04-17 07:34 | 46.86082 | 0.36163 | 39215 ft | 438 kts | 182° |
| 2026-04-17 07:35 | 46.79984 | 0.36472 | 39215 ft | 439 kts | 182° |
| 2026-04-17 07:35 | 46.73871 | 0.36780 | 39213 ft | 440 kts | 182° |
| 2026-04-17 07:36 | 46.67756 | 0.37089 | 39210 ft | 440 kts | 182° |
| 2026-04-17 07:36 | 46.62673 | 0.37345 | 39216 ft | 440 kts | 182° |
| 2026-04-17 07:37 | 46.55565 | 0.37701 | 39197 ft | 440 kts | 182° |
| 2026-04-17 07:37 | 46.49448 | 0.38008 | 39208 ft | 439 kts | 182° |
| 2026-04-17 07:38 | 46.44327 | 0.38264 | 39210 ft | 439 kts | 182° |
| 2026-04-17 07:38 | 46.38262 | 0.38567 | 39208 ft | 439 kts | 182° |
| 2026-04-17 07:39 | 46.32162 | 0.38870 | 39202 ft | 438 kts | 182° |
| 2026-04-17 07:39 | 46.26071 | 0.39172 | 39201 ft | 438 kts | 182° |
| 2026-04-17 07:40 | 46.19981 | 0.39474 | 39199 ft | 438 kts | 182° |
| 2026-04-17 07:40 | 46.13891 | 0.39775 | 39186 ft | 438 kts | 182° |
| 2026-04-17 07:41 | 46.07805 | 0.40075 | 39188 ft | 438 kts | 182° |
| 2026-04-17 07:41 | 46.01719 | 0.40374 | 39198 ft | 438 kts | 182° |
| 2026-04-17 07:42 | 45.95622 | 0.40673 | 39187 ft | 439 kts | 182° |
| 2026-04-17 07:42 | 45.89612 | 0.40967 | 39204 ft | 439 kts | 182° |
| 2026-04-17 07:43 | 45.83496 | 0.41266 | 39204 ft | 440 kts | 182° |
| 2026-04-17 07:43 | 45.77366 | 0.41565 | 39209 ft | 441 kts | 182° |
| 2026-04-17 07:44 | 45.71224 | 0.41864 | 39207 ft | 442 kts | 182° |
| 2026-04-17 07:44 | 45.65072 | 0.42163 | 39195 ft | 443 kts | 182° |
| 2026-04-17 07:45 | 45.58907 | 0.42461 | 39193 ft | 444 kts | 182° |
| 2026-04-17 07:45 | 45.52734 | 0.42760 | 39177 ft | 444 kts | 182° |
| 2026-04-17 07:46 | 45.46604 | 0.43056 | 39185 ft | 444 kts | 182° |
| 2026-04-17 07:46 | 45.40427 | 0.43353 | 39185 ft | 444 kts | 182° |
| 2026-04-17 07:47 | 45.34253 | 0.43650 | 39190 ft | 444 kts | 182° |
| 2026-04-17 07:47 | 45.28084 | 0.43946 | 39195 ft | 443 kts | 182° |
| 2026-04-17 07:48 | 45.21919 | 0.44241 | 39190 ft | 443 kts | 182° |
| 2026-04-17 07:48 | 45.15759 | 0.44535 | 39185 ft | 442 kts | 182° |
| 2026-04-17 07:49 | 45.09611 | 0.44828 | 39193 ft | 442 kts | 182° |
| 2026-04-17 07:49 | 45.03470 | 0.45119 | 39190 ft | 442 kts | 182° |
| 2026-04-17 07:50 | 44.97327 | 0.45410 | 39193 ft | 442 kts | 183° |
| 2026-04-17 07:50 | 44.91187 | 0.45701 | 39212 ft | 442 kts | 183° |
| 2026-04-17 07:51 | 44.85041 | 0.45990 | 39217 ft | 442 kts | 183° |
| 2026-04-17 07:51 | 44.78893 | 0.46280 | 39212 ft | 442 kts | 183° |
| 2026-04-17 07:52 | 44.72739 | 0.46569 | 39212 ft | 443 kts | 183° |
| 2026-04-17 07:52 | 44.66582 | 0.46858 | 39208 ft | 443 kts | 183° |
| 2026-04-17 07:53 | 44.60420 | 0.47146 | 39194 ft | 443 kts | 183° |
| 2026-04-17 07:53 | 44.54250 | 0.47434 | 39198 ft | 444 kts | 183° |
| 2026-04-17 07:54 | 44.48077 | 0.47723 | 39197 ft | 444 kts | 183° |
| 2026-04-17 07:54 | 44.41894 | 0.48009 | 39187 ft | 445 kts | 183° |
| 2026-04-17 07:55 | 44.35712 | 0.48296 | 39198 ft | 445 kts | 183° |
| 2026-04-17 07:55 | 44.29523 | 0.48583 | 39211 ft | 445 kts | 183° |
| 2026-04-17 07:56 | 44.23331 | 0.48869 | 39214 ft | 445 kts | 183° |
| 2026-04-17 07:56 | 44.17133 | 0.49155 | 39210 ft | 446 kts | 183° |
| 2026-04-17 07:57 | 44.10932 | 0.49441 | 39210 ft | 446 kts | 183° |
| 2026-04-17 07:57 | 44.04734 | 0.49621 | 39204 ft | 442 kts | 190° |
| 2026-04-17 07:58 | 43.98687 | 0.48487 | 39203 ft | 438 kts | 194° |
| 2026-04-17 07:58 | 43.92710 | 0.47169 | 39218 ft | 438 kts | 194° |
| 2026-04-17 07:59 | 43.86685 | 0.45889 | 39217 ft | 438 kts | 194° |
| 2026-04-17 07:59 | 43.80643 | 0.44657 | 39210 ft | 439 kts | 193° |
| 2026-04-17 08:00 | 43.74602 | 0.43448 | 39223 ft | 439 kts | 193° |
| 2026-04-17 08:00 | 43.68551 | 0.42243 | 39223 ft | 439 kts | 193° |
| 2026-04-17 08:01 | 43.62498 | 0.41039 | 39214 ft | 440 kts | 193° |
| 2026-04-17 08:01 | 43.56438 | 0.39835 | 39213 ft | 440 kts | 193° |
| 2026-04-17 08:02 | 43.50379 | 0.38633 | 39219 ft | 440 kts | 193° |
| 2026-04-17 08:02 | 43.44322 | 0.37435 | 39226 ft | 440 kts | 193° |
| 2026-04-17 08:03 | 43.38302 | 0.36245 | 39212 ft | 440 kts | 193° |
| 2026-04-17 08:03 | 43.32250 | 0.35052 | 39216 ft | 439 kts | 193° |
| 2026-04-17 08:04 | 43.26197 | 0.33861 | 39214 ft | 439 kts | 193° |
| 2026-04-17 08:04 | 43.20142 | 0.32673 | 39205 ft | 439 kts | 193° |
| 2026-04-17 08:05 | 43.14095 | 0.31488 | 39219 ft | 439 kts | 193° |
| 2026-04-17 08:05 | 43.08040 | 0.30303 | 39218 ft | 440 kts | 193° |
| 2026-04-17 08:06 | 43.01981 | 0.29120 | 39200 ft | 440 kts | 192° |
| 2026-04-17 08:06 | 42.95910 | 0.27938 | 39208 ft | 441 kts | 192° |
| 2026-04-17 08:07 | 42.89832 | 0.26756 | 39209 ft | 441 kts | 192° |
| 2026-04-17 08:07 | 42.83749 | 0.25576 | 39199 ft | 441 kts | 192° |
| 2026-04-17 08:08 | 42.77675 | 0.24401 | 39205 ft | 441 kts | 192° |
| 2026-04-17 08:08 | 42.71591 | 0.23225 | 39207 ft | 442 kts | 192° |
| 2026-04-17 08:09 | 42.65498 | 0.22049 | 39212 ft | 442 kts | 192° |
| 2026-04-17 08:09 | 42.59399 | 0.20876 | 39196 ft | 442 kts | 192° |
| 2026-04-17 08:10 | 42.53314 | 0.19704 | 39197 ft | 441 kts | 192° |
| 2026-04-17 08:10 | 42.47236 | 0.18540 | 39203 ft | 441 kts | 192° |
| 2026-04-17 08:11 | 42.41155 | 0.17378 | 39194 ft | 441 kts | 192° |
| 2026-04-17 08:11 | 42.35116 | 0.16225 | 39189 ft | 441 kts | 192° |
| 2026-04-17 08:12 | 42.29047 | 0.15069 | 39193 ft | 440 kts | 192° |
| 2026-04-17 08:12 | 42.22983 | 0.13915 | 39194 ft | 440 kts | 192° |
| 2026-04-17 08:13 | 42.16923 | 0.12764 | 39182 ft | 439 kts | 192° |
| 2026-04-17 08:14 | 42.07848 | 0.11045 | 39198 ft | 439 kts | 192° |
| 2026-04-17 08:14 | 42.01793 | 0.09901 | 39190 ft | 440 kts | 192° |
| 2026-04-17 08:15 | 41.95734 | 0.08758 | 39187 ft | 440 kts | 191° |
| 2026-04-17 08:15 | 41.89673 | 0.07617 | 39189 ft | 440 kts | 191° |
| 2026-04-17 08:16 | 41.83643 | 0.06485 | 39195 ft | 441 kts | 191° |
| 2026-04-17 08:16 | 41.77570 | 0.05346 | 39194 ft | 441 kts | 191° |
| 2026-04-17 08:17 | 41.71484 | 0.04207 | 39192 ft | 442 kts | 191° |
| 2026-04-17 08:17 | 41.65390 | 0.03068 | 39199 ft | 442 kts | 191° |
| 2026-04-17 08:18 | 41.59286 | 0.01930 | 39193 ft | 443 kts | 191° |
| 2026-04-17 08:18 | 41.53175 | 0.00793 | 39192 ft | 444 kts | 191° |
| 2026-04-17 08:19 | 41.47056 | -0.00343 | 39196 ft | 444 kts | 191° |
| 2026-04-17 08:19 | 41.40929 | -0.01479 | 39191 ft | 444 kts | 191° |
| 2026-04-17 08:20 | 41.34809 | -0.02611 | 39190 ft | 444 kts | 191° |
| 2026-04-17 08:20 | 41.28690 | -0.03741 | 39187 ft | 443 kts | 191° |
| 2026-04-17 08:21 | 41.22581 | -0.04867 | 39187 ft | 443 kts | 191° |
| 2026-04-17 08:21 | 41.16471 | -0.05991 | 39188 ft | 443 kts | 191° |
| 2026-04-17 08:22 | 41.10369 | -0.07111 | 39188 ft | 443 kts | 191° |
| 2026-04-17 08:22 | 41.04268 | -0.08229 | 39189 ft | 443 kts | 191° |
| 2026-04-17 08:23 | 40.98166 | -0.09346 | 39189 ft | 443 kts | 191° |
| 2026-04-17 08:23 | 40.92067 | -0.10459 | 39188 ft | 443 kts | 191° |
| 2026-04-17 08:24 | 40.85961 | -0.11572 | 39184 ft | 443 kts | 190° |
| 2026-04-17 08:24 | 40.79855 | -0.12683 | 39190 ft | 443 kts | 190° |
| 2026-04-17 08:25 | 40.73737 | -0.13794 | 39189 ft | 444 kts | 190° |
| 2026-04-17 08:25 | 40.67611 | -0.14905 | 39182 ft | 445 kts | 190° |
| 2026-04-17 08:26 | 40.61511 | -0.16008 | 39197 ft | 446 kts | 190° |
| 2026-04-17 08:26 | 40.55363 | -0.17118 | 39202 ft | 446 kts | 190° |
| 2026-04-17 08:27 | 40.49203 | -0.18228 | 39201 ft | 447 kts | 190° |
| 2026-04-17 08:27 | 40.43039 | -0.19337 | 39209 ft | 447 kts | 190° |
| 2026-04-17 08:28 | 40.36837 | -0.20452 | 38661 ft | 455 kts | 190° |
| 2026-04-17 08:28 | 40.33706 | -0.21014 | 38127 ft | 452 kts | 190° |
| 2026-04-17 08:28 | 40.30610 | -0.21567 | 37782 ft | 446 kts | 190° |
| 2026-04-17 08:28 | 40.27546 | -0.22114 | 37363 ft | 442 kts | 190° |
| 2026-04-17 08:29 | 40.25496 | -0.22479 | 37119 ft | 438 kts | 190° |
| 2026-04-17 08:29 | 40.21523 | -0.23188 | 36610 ft | 433 kts | 189° |
| 2026-04-17 08:29 | 40.19554 | -0.23540 | 36363 ft | 430 kts | 189° |
| 2026-04-17 08:29 | 40.16602 | -0.24066 | 35995 ft | 426 kts | 189° |
| 2026-04-17 08:30 | 40.13677 | -0.24588 | 35618 ft | 423 kts | 189° |
| 2026-04-17 08:30 | 40.10770 | -0.25106 | 35234 ft | 420 kts | 189° |
| 2026-04-17 08:30 | 40.07882 | -0.25621 | 34868 ft | 417 kts | 189° |
| 2026-04-17 08:30 | 40.05015 | -0.26131 | 34489 ft | 415 kts | 189° |
| 2026-04-17 08:31 | 40.02168 | -0.26637 | 34117 ft | 412 kts | 189° |
| 2026-04-17 08:31 | 39.99332 | -0.27140 | 33705 ft | 410 kts | 189° |
| 2026-04-17 08:31 | 39.96520 | -0.27639 | 33325 ft | 407 kts | 189° |
| 2026-04-17 08:31 | 39.93724 | -0.28134 | 32955 ft | 404 kts | 189° |
| 2026-04-17 08:32 | 39.90951 | -0.28625 | 32605 ft | 401 kts | 189° |
| 2026-04-17 08:32 | 39.88200 | -0.29112 | 32249 ft | 398 kts | 189° |
| 2026-04-17 08:32 | 39.85463 | -0.29595 | 31897 ft | 395 kts | 189° |
| 2026-04-17 08:32 | 39.82745 | -0.30075 | 31555 ft | 393 kts | 189° |
| 2026-04-17 08:33 | 39.80045 | -0.30552 | 31207 ft | 391 kts | 189° |
| 2026-04-17 08:33 | 39.77358 | -0.31026 | 30869 ft | 389 kts | 188° |
| 2026-04-17 08:33 | 39.74684 | -0.31497 | 30534 ft | 387 kts | 188° |
| 2026-04-17 08:33 | 39.72026 | -0.31965 | 30182 ft | 385 kts | 188° |
| 2026-04-17 08:34 | 39.69379 | -0.32431 | 29786 ft | 383 kts | 188° |
| 2026-04-17 08:34 | 39.66748 | -0.32893 | 29409 ft | 380 kts | 188° |
| 2026-04-17 08:34 | 39.64139 | -0.33352 | 29077 ft | 377 kts | 188° |
| 2026-04-17 08:34 | 39.61552 | -0.33806 | 28713 ft | 374 kts | 188° |
| 2026-04-17 08:35 | 39.58988 | -0.34256 | 28371 ft | 371 kts | 188° |
| 2026-04-17 08:35 | 39.56439 | -0.34703 | 28010 ft | 369 kts | 188° |
| 2026-04-17 08:35 | 39.53903 | -0.35147 | 27668 ft | 366 kts | 188° |
| 2026-04-17 08:35 | 39.51385 | -0.35587 | 27324 ft | 364 kts | 188° |
| 2026-04-17 08:36 | 39.48883 | -0.36025 | 26985 ft | 362 kts | 188° |
| 2026-04-17 08:36 | 39.46428 | -0.36454 | 26654 ft | 360 kts | 188° |
| 2026-04-17 08:36 | 39.43952 | -0.36886 | 26320 ft | 358 kts | 188° |
| 2026-04-17 08:36 | 39.41491 | -0.37316 | 25989 ft | 356 kts | 188° |
| 2026-04-17 08:37 | 39.39038 | -0.37744 | 25659 ft | 355 kts | 188° |
| 2026-04-17 08:37 | 39.36597 | -0.38169 | 25316 ft | 353 kts | 188° |
| 2026-04-17 08:37 | 39.34165 | -0.38593 | 24989 ft | 352 kts | 188° |
| 2026-04-17 08:37 | 39.31742 | -0.39014 | 24659 ft | 351 kts | 188° |
| 2026-04-17 08:38 | 39.29328 | -0.39434 | 24328 ft | 350 kts | 188° |
| 2026-04-17 08:38 | 39.26918 | -0.39853 | 23993 ft | 349 kts | 188° |
| 2026-04-17 08:38 | 39.24509 | -0.40271 | 23652 ft | 349 kts | 188° |
| 2026-04-17 08:38 | 39.22108 | -0.40688 | 23270 ft | 348 kts | 188° |
| 2026-04-17 08:39 | 39.19716 | -0.41102 | 22919 ft | 346 kts | 188° |
| 2026-04-17 08:39 | 39.17337 | -0.41514 | 22578 ft | 344 kts | 188° |
| 2026-04-17 08:39 | 39.14970 | -0.41924 | 22248 ft | 342 kts | 188° |
| 2026-04-17 08:39 | 39.12618 | -0.42331 | 21924 ft | 340 kts | 188° |
| 2026-04-17 08:40 | 39.10279 | -0.42736 | 21605 ft | 339 kts | 188° |
| 2026-04-17 08:40 | 39.07948 | -0.43139 | 21286 ft | 337 kts | 188° |
| 2026-04-17 08:40 | 39.05629 | -0.43539 | 20971 ft | 336 kts | 188° |
| 2026-04-17 08:40 | 39.03317 | -0.43938 | 20657 ft | 334 kts | 188° |
| 2026-04-17 08:41 | 39.01019 | -0.44334 | 20341 ft | 333 kts | 188° |
| 2026-04-17 08:41 | 38.98726 | -0.44730 | 20031 ft | 332 kts | 188° |
| 2026-04-17 08:41 | 38.96443 | -0.45123 | 19721 ft | 331 kts | 188° |
| 2026-04-17 08:41 | 38.94164 | -0.45515 | 19410 ft | 330 kts | 188° |
| 2026-04-17 08:42 | 38.91892 | -0.45906 | 19099 ft | 329 kts | 188° |
| 2026-04-17 08:42 | 38.89628 | -0.46295 | 18792 ft | 328 kts | 188° |
| 2026-04-17 08:42 | 38.87365 | -0.46684 | 18479 ft | 328 kts | 188° |
| 2026-04-17 08:42 | 38.85108 | -0.47072 | 18122 ft | 327 kts | 188° |
| 2026-04-17 08:43 | 38.82858 | -0.47458 | 17787 ft | 326 kts | 188° |
| 2026-04-17 08:43 | 38.80616 | -0.47843 | 17459 ft | 324 kts | 188° |
| 2026-04-17 08:43 | 38.78387 | -0.48224 | 17143 ft | 323 kts | 188° |
| 2026-04-17 08:43 | 38.76164 | -0.48604 | 16830 ft | 321 kts | 188° |
| 2026-04-17 08:44 | 38.73981 | -0.48978 | 16526 ft | 320 kts | 188° |
| 2026-04-17 08:44 | 38.71778 | -0.49355 | 16215 ft | 319 kts | 188° |
| 2026-04-17 08:44 | 38.69581 | -0.49731 | 15902 ft | 318 kts | 188° |
| 2026-04-17 08:44 | 38.67367 | -0.50109 | 15599 ft | 316 kts | 188° |
| 2026-04-17 08:45 | 38.65222 | -0.50475 | 15270 ft | 315 kts | 188° |
| 2026-04-17 08:45 | 38.63046 | -0.50845 | 14940 ft | 315 kts | 187° |
| 2026-04-17 08:45 | 38.60850 | -0.51186 | 14462 ft | 321 kts | 187° |
| 2026-04-17 08:45 | 38.58614 | -0.51540 | 14016 ft | 325 kts | 188° |
| 2026-04-17 08:46 | 38.56381 | -0.51900 | 13755 ft | 321 kts | 187° |
| 2026-04-17 08:46 | 38.54189 | -0.52199 | 13632 ft | 313 kts | 185° |
| 2026-04-17 08:46 | 38.52038 | -0.52503 | 13281 ft | 312 kts | 188° |
| 2026-04-17 08:46 | 38.49867 | -0.52881 | 12762 ft | 318 kts | 188° |
| 2026-04-17 08:47 | 38.47668 | -0.53287 | 12364 ft | 319 kts | 189° |
| 2026-04-17 08:47 | 38.45494 | -0.53701 | 12189 ft | 312 kts | 188° |
| 2026-04-17 08:47 | 38.43367 | -0.54047 | 12046 ft | 305 kts | 187° |
| 2026-04-17 08:47 | 38.41271 | -0.54413 | 11774 ft | 302 kts | 188° |
| 2026-04-17 08:48 | 38.39185 | -0.54785 | 11514 ft | 304 kts | 188° |
| 2026-04-17 08:48 | 38.37083 | -0.55192 | 11304 ft | 305 kts | 188° |
| 2026-04-17 08:48 | 38.35003 | -0.55563 | 11274 ft | 298 kts | 188° |
| 2026-04-17 08:48 | 38.32948 | -0.55926 | 11140 ft | 298 kts | 188° |
| 2026-04-17 08:49 | 38.30919 | -0.56273 | 11141 ft | 291 kts | 187° |
| 2026-04-17 08:49 | 38.28927 | -0.56591 | 11146 ft | 285 kts | 189° |
| 2026-04-17 08:49 | 38.26995 | -0.57120 | 11159 ft | 283 kts | 202° |
| 2026-04-17 08:49 | 38.25342 | -0.58433 | 11215 ft | 283 kts | 227° |
| 2026-04-17 08:50 | 38.24285 | -0.60525 | 11219 ft | 282 kts | 249° |
| 2026-04-17 08:50 | 38.23430 | -0.62782 | 11279 ft | 284 kts | 243° |
| 2026-04-17 08:50 | 38.22475 | -0.64954 | 11500 ft | 278 kts | 240° |
| 2026-04-17 08:50 | 38.21400 | -0.66973 | 11684 ft | 275 kts | 230° |
| 2026-04-17 08:51 | 38.19894 | -0.68477 | 11139 ft | 286 kts | 205° |
| 2026-04-17 08:51 | 38.17884 | -0.69093 | 10321 ft | 308 kts | 185° |
| 2026-04-17 08:51 | 38.15738 | -0.69333 | 9945 ft | 309 kts | 186° |
| 2026-04-17 08:51 | 38.13647 | -0.69778 | 9774 ft | 301 kts | 198° |
| 2026-04-17 08:52 | 38.11829 | -0.70971 | 9680 ft | 290 kts | 220° |
| 2026-04-17 08:52 | 38.10424 | -0.72811 | 9213 ft | 294 kts | 232° |
| 2026-04-17 08:52 | 38.09108 | -0.74796 | 8949 ft | 291 kts | 229° |
| 2026-04-17 08:52 | 38.07777 | -0.76702 | 8500 ft | 295 kts | 229° |
| 2026-04-17 08:53 | 38.06415 | -0.78641 | 8236 ft | 292 kts | 227° |
| 2026-04-17 08:53 | 38.05010 | -0.80474 | 8024 ft | 287 kts | 225° |
| 2026-04-17 08:53 | 38.03599 | -0.82265 | 7677 ft | 288 kts | 225° |
| 2026-04-17 08:53 | 38.02172 | -0.84098 | 7152 ft | 296 kts | 226° |
| 2026-04-17 08:54 | 38.00741 | -0.85990 | 6778 ft | 297 kts | 226° |
| 2026-04-17 08:54 | 37.99301 | -0.87852 | 6304 ft | 295 kts | 226° |
| 2026-04-17 08:54 | 37.97879 | -0.89705 | 5874 ft | 290 kts | 225° |
| 2026-04-17 08:54 | 37.96466 | -0.91478 | 5505 ft | 283 kts | 224° |
| 2026-04-17 08:55 | 37.95065 | -0.93210 | 5020 ft | 280 kts | 225° |
| 2026-04-17 08:55 | 37.93683 | -0.94947 | 4490 ft | 279 kts | 225° |
| 2026-04-17 08:55 | 37.92316 | -0.96672 | 4059 ft | 275 kts | 226° |
| 2026-04-17 08:55 | 37.91016 | -0.98403 | 3656 ft | 269 kts | 227° |
| 2026-04-17 08:56 | 37.89739 | -1.00134 | 3192 ft | 267 kts | 226° |
| 2026-04-17 08:56 | 37.88474 | -1.01821 | 2839 ft | 261 kts | 226° |
| 2026-04-17 08:56 | 37.87258 | -1.03441 | 2442 ft | 249 kts | 226° |
| 2026-04-17 08:56 | 37.86066 | -1.05027 | 2034 ft | 242 kts | 227° |
| 2026-04-17 08:57 | 37.84954 | -1.06551 | 1700 ft | 232 kts | 227° |
| 2026-04-17 08:57 | 37.83875 | -1.07968 | 1449 ft | 216 kts | 223° |
| 2026-04-17 08:57 | 37.82820 | -1.09233 | 1929 ft | 206 kts | 224° |
| 2026-04-17 08:57 | 37.81832 | -1.10437 | 3148 ft | 189 kts | 224° |
| 2026-04-17 08:58 | 37.80894 | -1.11588 | 4238 ft | 191 kts | 224° |
| 2026-04-17 08:58 | 37.79935 | -1.12770 | 5185 ft | 201 kts | 225° |
| 2026-04-17 08:58 | 37.78888 | -1.14103 | 5614 ft | 226 kts | 226° |
| 2026-04-17 08:58 | 37.77698 | -1.15556 | 5644 ft | 252 kts | 217° |
| 2026-04-17 08:59 | 37.76084 | -1.16611 | 5372 ft | 271 kts | 193° |
| 2026-04-17 08:59 | 37.74198 | -1.16686 | 5010 ft | 275 kts | 168° |
| 2026-04-17 08:59 | 37.72447 | -1.15703 | 4587 ft | 278 kts | 141° |
| 2026-04-17 08:59 | 37.71044 | -1.14089 | 4575 ft | 266 kts | 136° |
| 2026-04-17 09:00 | 37.69736 | -1.12504 | 4421 ft | 259 kts | 134° |
| 2026-04-17 09:00 | 37.68559 | -1.10778 | 4147 ft | 257 kts | 119° |
| 2026-04-17 09:00 | 37.68039 | -1.08698 | 4009 ft | 250 kts | 90° |
| 2026-04-17 09:00 | 37.68508 | -1.06627 | 3827 ft | 250 kts | 55° |
| 2026-04-17 09:01 | 37.69659 | -1.05025 | 3829 ft | 248 kts | 46° |
| 2026-04-17 09:01 | 37.70844 | -1.03458 | 3925 ft | 243 kts | 46° |
| 2026-04-17 09:01 | 37.72012 | -1.01929 | 4081 ft | 243 kts | 45° |
| 2026-04-17 09:01 | 37.73213 | -1.00411 | 4007 ft | 247 kts | 45° |
| 2026-04-17 09:02 | 37.74476 | -0.98871 | 3787 ft | 257 kts | 42° |
| 2026-04-17 09:02 | 37.75737 | -0.97308 | 3963 ft | 247 kts | 46° |
| 2026-04-17 09:02 | 37.76904 | -0.95772 | 4107 ft | 242 kts | 46° |
| 2026-04-17 09:02 | 37.78084 | -0.94228 | 4057 ft | 243 kts | 45° |
| 2026-04-17 09:03 | 37.79280 | -0.92757 | 4192 ft | 237 kts | 39° |
| 2026-04-17 09:03 | 37.80651 | -0.91587 | 4145 ft | 240 kts | 30° |
| 2026-04-17 09:03 | 37.82091 | -0.90486 | 4071 ft | 243 kts | 31° |
| 2026-04-17 09:03 | 37.83537 | -0.89383 | 4106 ft | 242 kts | 31° |
| 2026-04-17 09:04 | 37.84953 | -0.88264 | 4155 ft | 240 kts | 32° |
| 2026-04-17 09:04 | 37.86391 | -0.87141 | 4047 ft | 245 kts | 31° |
| 2026-04-17 09:04 | 37.87844 | -0.86060 | 4161 ft | 240 kts | 30° |
| 2026-04-17 09:04 | 37.89332 | -0.85222 | 4160 ft | 239 kts | 9° |
| 2026-04-17 09:05 | 37.90974 | -0.85461 | 4038 ft | 241 kts | 333° |
| 2026-04-17 09:05 | 37.92329 | -0.86675 | 4081 ft | 237 kts | 320° |
| 2026-04-17 09:05 | 37.93608 | -0.87986 | 4109 ft | 236 kts | 321° |
| 2026-04-17 09:05 | 37.94898 | -0.89279 | 4088 ft | 235 kts | 321° |
| 2026-04-17 09:06 | 37.96051 | -0.90652 | 4148 ft | 219 kts | 300° |
| 2026-04-17 09:06 | 37.96376 | -0.92440 | 4071 ft | 205 kts | 260° |
| 2026-04-17 09:06 | 37.95741 | -0.93923 | 4048 ft | 189 kts | 218° |
| 2026-04-17 09:06 | 37.94561 | -0.94563 | 3861 ft | 183 kts | 193° |
| 2026-04-17 09:07 | 37.93444 | -0.95076 | 3886 ft | 164 kts | 214° |
| 2026-04-17 09:07 | 37.92629 | -0.96091 | 3605 ft | 167 kts | 231° |
| 2026-04-17 09:07 | 37.91929 | -0.97241 | 3562 ft | 161 kts | 230° |
| 2026-04-17 09:07 | 37.91162 | -0.98225 | 3630 ft | 157 kts | 224° |
| 2026-04-17 09:08 | 37.90364 | -0.99280 | 3277 ft | 171 kts | 227° |
| 2026-04-17 09:08 | 37.89601 | -1.00398 | 3131 ft | 168 kts | 228° |
| 2026-04-17 09:08 | 37.88799 | -1.01505 | 2777 ft | 171 kts | 226° |
| 2026-04-17 09:08 | 37.87975 | -1.02528 | 2598 ft | 163 kts | 224° |
| 2026-04-17 09:09 | 37.87195 | -1.03541 | 2330 ft | 157 kts | 226° |
| 2026-04-17 09:09 | 37.86462 | -1.04525 | 2136 ft | 151 kts | 227° |
| 2026-04-17 09:09 | 37.85753 | -1.05484 | 1950 ft | 150 kts | 226° |
| 2026-04-17 09:09 | 37.85024 | -1.06418 | 1700 ft | 153 kts | 223° |
| 2026-04-17 09:10 | 37.83502 | -1.08334 | 1337 ft | 156 kts | 226° |
| 2026-04-17 09:10 | 37.82761 | -1.09329 | 1121 ft | 155 kts | 225° |
| 2026-04-17 09:10 | 37.82002 | -1.10290 | 908 ft | 153 kts | 225° |
| 2026-04-17 09:11 | 37.81262 | -1.11249 | 684 ft | 152 kts | 225° |
| 2026-04-17 09:11 | 37.80564 | -1.12148 | 647 ft | 129 kts | 225° |
| 2026-04-17 09:11 | 37.80079 | -1.12774 | 642 ft | 72 kts | 225° |
| 2026-04-17 09:11 | 37.79922 | -1.13059 | 646 ft | 26 kts | 250° |
| 2026-04-17 09:12 | 37.79903 | -1.13222 | 650 ft | 14 kts | 302° |
| 2026-04-17 09:12 | 37.79986 | -1.13202 | 647 ft | 15 kts | 45° |
| 2026-04-17 09:12 | 37.80064 | -1.13104 | 647 ft | 17 kts | 40° |
| 2026-04-17 09:12 | 37.80166 | -1.13141 | 646 ft | 17 kts | 322° |
| 2026-04-17 09:13 | 37.80264 | -1.13099 | 646 ft | 16 kts | 45° |
| 2026-04-17 09:13 | 37.80337 | -1.13005 | 646 ft | 8 kts | 45° |
| 2026-04-17 09:13 | 37.80375 | -1.13012 | 648 ft | 6 kts | 323° |
| 2026-04-17 09:13 | 37.80397 | -1.13040 | 646 ft | 3 kts | 320° |
| 2026-04-17 09:14 | 37.80408 | -1.13053 | 646 ft | 2 kts | 315° |
| 2026-04-17 09:14 | 37.80409 | -1.13053 | 646 ft | 0 kts | 315° |